Time,TemperatureF,DewpointF,PressureIn,WindDirection,WindDirectionDegrees,WindSpeedMPH,WindSpeedGustMPH,Humidity,HourlyPrecipIn,Conditions,Clouds,dailyrainin,SoftwareType,DateUTC
2013-04-28 00:01:00,45.4,44.6,30.05,SE,125,0.0,0.0,97,0.00,RA,,0.00,WeatherDisplay:10.37,2013-04-28 05:01:00,
2013-04-28 00:06:00,45.5,44.7,30.05,SE,126,0.0,0.0,97,0.00,RA,,0.00,WeatherDisplay:10.37,2013-04-28 05:06:00,
2013-04-28 00:11:00,45.8,45.0,30.05,SE,126,0.0,0.0,97,0.00,CLR,,0.00,WeatherDisplay:10.37,2013-04-28 05:11:00,
2013-04-28 00:16:00,45.7,44.9,30.05,SE,126,0.0,0.0,97,0.00,CLR,,0.00,WeatherDisplay:10.37,2013-04-28 05:16:00,
2013-04-28 00:21:00,45.6,44.8,30.05,SE,126,0.0,0.0,97,0.00,CLR,,0.00,WeatherDisplay:10.37,2013-04-28 05:21:00,
2013-04-28 00:26:00,45.4,44.3,30.05,SE,126,0.0,0.0,96,0.00,CLR,,0.00,WeatherDisplay:10.37,2013-04-28 05:26:00,
2013-04-28 00:31:00,45.4,44.6,30.05,SE,126,0.0,0.0,97,0.00,CLR,,0.00,WeatherDisplay:10.37,2013-04-28 05:31:00,
2013-04-28 00:36:00,45.2,44.1,30.05,SE,126,0.0,0.0,96,0.00,CLR,,0.00,WeatherDisplay:10.37,2013-04-28 05:36:00,
2013-04-28 00:41:00,45.4,44.6,30.05,SE,126,0.0,0.0,97,0.00,CLR,,0.00,WeatherDisplay:10.37,2013-04-28 05:41:00,
2013-04-28 00:46:00,45.3,44.5,30.04,SE,126,0.0,0.0,97,0.00,CLR,,0.00,WeatherDisplay:10.37,2013-04-28 05:46:00,
2013-04-28 00:51:00,45.2,44.4,30.05,SE,126,0.0,0.0,97,0.00,CLR,,0.00,WeatherDisplay:10.37,2013-04-28 05:51:00,
2013-04-28 00:56:00,45.4,44.6,30.05,WSW,257,0.0,0.0,97,0.00,CLR,,0.00,WeatherDisplay:10.37,2013-04-28 05:56:00,
2013-04-28 01:01:00,45.2,44.4,30.05,WSW,257,0.0,0.0,97,0.00,CLR,,0.00,WeatherDisplay:10.37,2013-04-28 06:01:00,
2013-04-28 01:06:00,45.1,44.3,30.05,WSW,257,0.0,1.2,97,0.00,CLR,,0.00,WeatherDisplay:10.37,2013-04-28 06:06:00,
2013-04-28 01:11:00,44.9,43.8,30.05,WSW,258,0.0,0.0,96,0.00,CLR,,0.00,WeatherDisplay:10.37,2013-04-28 06:11:00,
2013-04-28 01:16:00,44.7,43.6,30.05,WSW,258,0.0,0.0,96,0.00,CLR,,0.00,WeatherDisplay:10.37,2013-04-28 06:16:00,
2013-04-28 01:21:00,44.5,43.4,30.04,WSW,257,0.0,0.0,96,0.00,CLR,,0.00,WeatherDisplay:10.37,2013-04-28 06:21:00,
2013-04-28 01:26:00,44.3,43.2,30.04,WSW,257,0.0,0.0,96,0.00,CLR,,0.00,WeatherDisplay:10.37,2013-04-28 06:26:00,
2013-04-28 01:31:00,44.2,43.4,30.04,WSW,257,0.0,0.0,97,0.00,CLR,,0.00,WeatherDisplay:10.37,2013-04-28 06:31:00,
2013-04-28 01:36:00,44.1,43.3,30.04,WSW,257,0.0,0.0,97,0.00,CLR,,0.00,WeatherDisplay:10.37,2013-04-28 06:36:00,
2013-04-28 01:41:00,43.9,43.1,30.04,WSW,257,0.0,0.0,97,0.00,CLR,,0.00,WeatherDisplay:10.37,2013-04-28 06:41:00,
2013-04-28 01:46:00,43.7,42.9,30.03,WSW,257,0.0,0.0,97,0.00,CLR,,0.00,WeatherDisplay:10.37,2013-04-28 06:46:00,
2013-04-28 01:51:00,43.5,42.7,30.03,WSW,257,0.0,0.0,97,0.00,CLR,,0.00,WeatherDisplay:10.37,2013-04-28 06:51:00,
2013-04-28 01:56:00,43.4,42.6,30.03,WSW,257,0.0,0.0,97,0.00,CLR,,0.00,WeatherDisplay:10.37,2013-04-28 06:56:00,
2013-04-28 02:01:00,43.3,42.5,30.02,WSW,257,0.0,0.0,97,0.00,CLR,,0.00,WeatherDisplay:10.37,2013-04-28 07:01:00,
2013-04-28 02:06:00,43.3,42.5,30.02,WSW,257,0.0,0.0,97,0.00,CLR,,0.00,WeatherDisplay:10.37,2013-04-28 07:06:00,
2013-04-28 02:11:00,43.2,42.4,30.02,WSW,257,0.0,0.0,97,0.00,CLR,,0.00,WeatherDisplay:10.37,2013-04-28 07:11:00,
2013-04-28 02:16:00,43.0,42.2,30.02,WSW,257,0.0,0.0,97,0.00,CLR,,0.00,WeatherDisplay:10.37,2013-04-28 07:16:00,
2013-04-28 02:21:00,42.9,42.1,30.01,WSW,257,0.0,0.0,97,0.00,CLR,,0.00,WeatherDisplay:10.37,2013-04-28 07:21:00,
2013-04-28 02:26:00,42.7,41.9,30.01,WSW,257,0.0,0.0,97,0.00,CLR,,0.00,WeatherDisplay:10.37,2013-04-28 07:26:00,
2013-04-28 02:31:00,42.7,41.9,30.01,WSW,257,0.0,0.0,97,0.00,CLR,,0.00,WeatherDisplay:10.37,2013-04-28 07:31:00,
2013-04-28 02:36:00,42.8,42.0,30.01,WSW,257,0.0,0.0,97,0.00,CLR,,0.00,WeatherDisplay:10.37,2013-04-28 07:36:00,
2013-04-28 02:41:00,43.1,42.6,30.01,WSW,257,0.0,0.0,98,0.00,CLR,,0.00,WeatherDisplay:10.37,2013-04-28 07:41:00,
2013-04-28 02:46:00,43.6,43.1,30.01,WSW,258,0.3,1.2,98,0.00,CLR,,0.00,WeatherDisplay:10.37,2013-04-28 07:46:00,
2013-04-28 02:51:00,43.7,43.2,30.01,WSW,258,0.0,0.0,98,0.00,CLR,,0.00,WeatherDisplay:10.37,2013-04-28 07:51:00,
2013-04-28 02:56:00,43.5,43.0,30.02,West,274,0.0,1.2,98,0.00,CLR,,0.00,WeatherDisplay:10.37,2013-04-28 07:56:00,
2013-04-28 03:01:00,43.5,43.0,30.02,West,273,0.1,0.0,98,0.00,,,0.00,WeatherDisplay:10.37,2013-04-28 08:01:00,
2013-04-28 03:06:00,43.2,42.4,30.01,West,273,0.0,0.0,97,0.00,,,0.00,WeatherDisplay:10.37,2013-04-28 08:06:00,
2013-04-28 03:11:00,43.0,42.2,30.02,West,273,0.0,0.0,97,0.00,,,0.00,WeatherDisplay:10.37,2013-04-28 08:11:00,
2013-04-28 03:16:00,42.8,42.0,30.02,West,273,0.0,0.0,97,0.00,,,0.00,WeatherDisplay:10.37,2013-04-28 08:16:00,
2013-04-28 03:22:00,42.7,41.9,30.02,West,273,0.0,0.0,97,0.00,,,0.00,WeatherDisplay:10.37,2013-04-28 08:22:00,
2013-04-28 03:27:00,42.5,41.7,30.02,West,273,0.0,0.0,97,0.00,,,0.00,WeatherDisplay:10.37,2013-04-28 08:27:00,
2013-04-28 03:32:00,42.3,41.5,30.02,West,274,0.0,0.0,97,0.00,FEW,,0.00,WeatherDisplay:10.37,2013-04-28 08:32:00,
2013-04-28 03:37:00,42.2,41.4,30.01,West,274,0.0,0.0,97,0.00,FEW,,0.00,WeatherDisplay:10.37,2013-04-28 08:37:00,
2013-04-28 03:42:00,42.0,41.2,30.02,West,274,0.0,0.0,97,0.00,CLR,,0.00,WeatherDisplay:10.37,2013-04-28 08:42:00,
2013-04-28 03:47:00,41.9,41.1,30.01,West,274,0.0,0.0,97,0.00,CLR,,0.00,WeatherDisplay:10.37,2013-04-28 08:47:00,
2013-04-28 03:52:00,41.8,41.0,30.01,West,274,0.0,0.0,97,0.00,CLR,,0.00,WeatherDisplay:10.37,2013-04-28 08:52:00,
2013-04-28 03:57:00,41.7,40.9,30.01,West,274,0.0,0.0,97,0.00,CLR,,0.00,WeatherDisplay:10.37,2013-04-28 08:57:00,
2013-04-28 04:02:00,41.5,40.7,30.01,West,274,0.0,0.0,97,0.00,CLR,,0.00,WeatherDisplay:10.37,2013-04-28 09:02:00,
2013-04-28 04:07:00,41.3,40.5,30.00,West,274,0.0,0.0,97,0.00,CLR,,0.00,WeatherDisplay:10.37,2013-04-28 09:07:00,
2013-04-28 04:12:00,41.1,40.3,30.01,West,274,0.0,0.0,97,0.00,CLR,,0.00,WeatherDisplay:10.37,2013-04-28 09:12:00,
2013-04-28 04:17:00,40.9,40.1,30.01,West,274,0.0,0.0,97,0.00,CLR,,0.00,WeatherDisplay:10.37,2013-04-28 09:17:00,
2013-04-28 04:22:00,40.9,40.1,30.01,West,274,0.0,0.0,97,0.00,,,0.00,WeatherDisplay:10.37,2013-04-28 09:22:00,
2013-04-28 04:27:00,40.9,40.1,30.01,West,274,0.0,0.0,97,0.00,,,0.00,WeatherDisplay:10.37,2013-04-28 09:27:00,
2013-04-28 04:32:00,40.8,40.0,30.01,West,274,0.0,0.0,97,0.00,,,0.00,WeatherDisplay:10.37,2013-04-28 09:32:00,
2013-04-28 04:37:00,40.7,39.9,30.01,West,274,0.0,0.0,97,0.00,,,0.00,WeatherDisplay:10.37,2013-04-28 09:37:00,
2013-04-28 04:42:00,40.6,39.8,30.01,West,274,0.0,0.0,97,0.00,,,0.00,WeatherDisplay:10.37,2013-04-28 09:42:00,
2013-04-28 04:47:00,40.6,39.8,30.01,West,274,0.0,1.2,97,0.00,,,0.00,WeatherDisplay:10.37,2013-04-28 09:47:00,
2013-04-28 04:52:00,40.5,39.7,30.01,West,274,0.0,0.0,97,0.00,,,0.00,WeatherDisplay:10.37,2013-04-28 09:52:00,
2013-04-28 04:57:00,40.5,39.7,30.01,West,274,0.0,0.0,97,0.00,,,0.00,WeatherDisplay:10.37,2013-04-28 09:57:00,
2013-04-28 05:02:00,40.3,39.5,30.01,West,274,0.0,0.0,97,0.00,,,0.00,WeatherDisplay:10.37,2013-04-28 10:02:00,
2013-04-28 05:07:00,40.3,39.5,30.01,West,274,0.0,0.0,97,0.00,,,0.00,WeatherDisplay:10.37,2013-04-28 10:07:00,
2013-04-28 05:12:00,40.2,39.4,30.01,West,274,0.0,0.0,97,0.00,,,0.00,WeatherDisplay:10.37,2013-04-28 10:12:00,
2013-04-28 05:17:00,40.0,39.2,30.01,West,274,0.0,0.0,97,0.00,,,0.00,WeatherDisplay:10.37,2013-04-28 10:17:00,
2013-04-28 05:22:00,40.0,39.2,30.00,West,274,0.0,0.0,97,0.00,,,0.00,WeatherDisplay:10.37,2013-04-28 10:22:00,
2013-04-28 05:27:00,40.0,39.5,30.01,West,274,0.0,0.0,98,0.00,,,0.00,WeatherDisplay:10.37,2013-04-28 10:27:00,
2013-04-28 05:32:00,40.1,39.6,30.01,West,274,0.0,0.0,98,0.00,,,0.00,WeatherDisplay:10.37,2013-04-28 10:32:00,
2013-04-28 05:37:00,40.0,39.5,30.01,West,274,0.0,0.0,98,0.00,,,0.00,WeatherDisplay:10.37,2013-04-28 10:37:00,
2013-04-28 05:42:00,40.0,39.5,30.01,West,274,0.0,0.0,98,0.00,,,0.00,WeatherDisplay:10.37,2013-04-28 10:42:00,
2013-04-28 05:47:00,39.9,39.4,30.01,West,274,0.0,0.0,98,0.00,,,0.00,WeatherDisplay:10.37,2013-04-28 10:47:00,
2013-04-28 05:52:00,39.9,39.4,30.01,West,274,0.0,0.0,98,0.00,,,0.00,WeatherDisplay:10.37,2013-04-28 10:52:00,
2013-04-28 05:57:00,39.8,39.3,30.01,West,274,0.0,0.0,98,0.00,,,0.00,WeatherDisplay:10.37,2013-04-28 10:57:00,
2013-04-28 06:02:00,39.9,39.4,30.01,West,274,0.0,0.0,98,0.00,CLR,,0.00,WeatherDisplay:10.37,2013-04-28 11:02:00,
2013-04-28 06:07:00,40.3,39.8,30.01,West,274,0.0,0.0,98,0.00,CLR,,0.00,WeatherDisplay:10.37,2013-04-28 11:07:00,
2013-04-28 06:12:00,40.7,40.2,30.01,West,274,0.0,0.0,98,0.00,CLR,,0.00,WeatherDisplay:10.37,2013-04-28 11:12:00,
2013-04-28 06:17:00,41.3,40.8,30.01,West,274,0.0,0.0,98,0.00,CLR,,0.00,WeatherDisplay:10.37,2013-04-28 11:17:00,
2013-04-28 06:22:00,41.8,41.3,30.01,West,274,0.0,0.0,98,0.00,CLR,,0.00,WeatherDisplay:10.37,2013-04-28 11:22:00,
2013-04-28 06:27:00,42.0,41.5,30.01,West,274,0.0,0.0,98,0.00,CLR,,0.00,WeatherDisplay:10.37,2013-04-28 11:27:00,
2013-04-28 06:32:00,41.8,41.3,30.02,West,274,0.0,0.0,98,0.00,CLR,,0.00,WeatherDisplay:10.37,2013-04-28 11:32:00,
2013-04-28 06:37:00,41.6,41.1,30.02,West,274,0.0,0.0,98,0.00,CLR,,0.00,WeatherDisplay:10.37,2013-04-28 11:37:00,
2013-04-28 06:42:00,41.6,41.1,30.01,West,274,0.0,0.0,98,0.00,CLR,,0.00,WeatherDisplay:10.37,2013-04-28 11:42:00,
2013-04-28 06:47:00,41.6,41.1,30.02,West,274,0.0,0.0,98,0.00,CLR,,0.00,WeatherDisplay:10.37,2013-04-28 11:47:00,
2013-04-28 06:52:00,41.7,41.2,30.02,West,274,0.0,0.0,98,0.00,CLR,,0.00,WeatherDisplay:10.37,2013-04-28 11:52:00,
2013-04-28 06:57:00,42.0,41.5,30.02,West,274,0.0,0.0,98,0.00,CLR,,0.00,WeatherDisplay:10.37,2013-04-28 11:57:00,
2013-04-28 07:02:00,42.1,41.6,30.02,West,274,0.0,0.0,98,0.00,CLR,,0.00,WeatherDisplay:10.37,2013-04-28 12:02:00,
2013-04-28 07:07:00,42.5,42.0,30.02,West,274,0.0,0.0,98,0.00,CLR,,0.00,WeatherDisplay:10.37,2013-04-28 12:07:00,
2013-04-28 07:12:00,42.7,42.2,30.02,West,274,0.0,0.0,98,0.00,CLR,,0.00,WeatherDisplay:10.37,2013-04-28 12:12:00,
2013-04-28 07:17:00,43.1,42.6,30.02,West,274,0.0,0.0,98,0.00,CLR,,0.00,WeatherDisplay:10.37,2013-04-28 12:17:00,
2013-04-28 07:22:00,43.5,43.0,30.02,West,274,0.0,0.0,98,0.00,CLR,,0.00,WeatherDisplay:10.37,2013-04-28 12:22:00,
2013-04-28 07:27:00,43.8,43.3,30.02,West,274,0.0,0.0,98,0.00,CLR,,0.00,WeatherDisplay:10.37,2013-04-28 12:27:00,
2013-04-28 07:32:00,44.3,43.8,30.02,West,274,0.0,0.0,98,0.00,CLR,,0.00,WeatherDisplay:10.37,2013-04-28 12:32:00,
2013-04-28 07:37:00,44.9,44.4,30.02,West,274,0.1,1.2,98,0.00,CLR,,0.00,WeatherDisplay:10.37,2013-04-28 12:37:00,
2013-04-28 07:42:00,46.2,45.7,30.02,SSW,195,0.0,0.0,98,0.00,CLR,,0.00,WeatherDisplay:10.37,2013-04-28 12:42:00,
2013-04-28 07:47:00,47.2,46.7,30.01,SSE,153,0.1,1.2,98,0.00,CLR,,0.00,WeatherDisplay:10.37,2013-04-28 12:47:00,
2013-04-28 07:52:00,47.7,47.2,30.02,SE,142,0.0,0.0,98,0.00,CLR,,0.00,WeatherDisplay:10.37,2013-04-28 12:52:00,
2013-04-28 07:57:00,48.3,47.8,30.01,SSW,195,0.2,1.2,98,0.00,CLR,,0.00,WeatherDisplay:10.37,2013-04-28 12:57:00,
2013-04-28 08:02:00,48.9,48.4,30.01,SSE,165,0.0,0.0,98,0.00,FEW,,0.00,WeatherDisplay:10.37,2013-04-28 13:02:00,
2013-04-28 08:07:00,49.3,48.8,30.01,SW,231,0.3,2.0,98,0.00,FEW,,0.00,WeatherDisplay:10.37,2013-04-28 13:07:00,
2013-04-28 08:12:00,49.7,49.2,30.01,SW,231,0.7,2.0,98,0.00,FEW,,0.00,WeatherDisplay:10.37,2013-04-28 13:12:00,
2013-04-28 08:17:00,50.1,49.6,30.01,WSW,245,1.6,3.5,98,0.00,FEW,,0.00,WeatherDisplay:10.37,2013-04-28 13:17:00,
2013-04-28 08:22:00,50.6,49.5,30.01,SW,222,0.3,1.2,96,0.00,FEW,,0.00,WeatherDisplay:10.37,2013-04-28 13:22:00,
2013-04-28 08:27:00,51.3,49.6,30.01,SW,233,0.4,1.2,94,0.00,FEW,,0.00,WeatherDisplay:10.37,2013-04-28 13:27:00,
2013-04-28 08:32:00,51.8,49.8,30.01,SSW,210,1.5,3.5,93,0.00,FEW,,0.00,WeatherDisplay:10.37,2013-04-28 13:32:00,
2013-04-28 08:37:00,52.3,49.8,30.01,WSW,238,1.7,3.5,91,0.00,FEW,,0.00,WeatherDisplay:10.37,2013-04-28 13:37:00,
2013-04-28 08:42:00,52.6,49.8,30.01,SW,235,2.9,4.6,90,0.00,FEW,,0.00,WeatherDisplay:10.37,2013-04-28 13:42:00,
2013-04-28 08:47:00,53.0,50.1,30.01,WSW,240,0.8,2.3,90,0.00,FEW,,0.00,WeatherDisplay:10.37,2013-04-28 13:47:00,
2013-04-28 08:52:00,53.7,50.5,30.01,South,188,1.1,2.3,89,0.00,FEW,,0.00,WeatherDisplay:10.37,2013-04-28 13:52:00,
2013-04-28 08:57:00,54.4,51.2,30.01,SE,143,0.6,2.3,89,0.00,FEW,,0.00,WeatherDisplay:10.37,2013-04-28 13:57:00,
2013-04-28 09:02:00,54.8,50.7,30.01,WSW,240,3.9,5.8,86,0.00,CLR,,0.00,WeatherDisplay:10.37,2013-04-28 14:02:00,
2013-04-28 09:07:00,55.2,51.4,30.01,WSW,250,1.9,4.6,87,0.00,CLR,,0.00,WeatherDisplay:10.37,2013-04-28 14:07:00,
2013-04-28 09:12:00,55.6,51.5,30.01,SSW,213,1.6,3.5,86,0.00,CLR,,0.00,WeatherDisplay:10.37,2013-04-28 14:12:00,
2013-04-28 09:17:00,55.9,50.8,30.00,SSW,207,3.2,3.5,83,0.00,CLR,,0.00,WeatherDisplay:10.37,2013-04-28 14:17:00,
2013-04-28 09:22:00,56.3,51.5,30.00,South,175,1.5,3.5,84,0.00,CLR,,0.00,WeatherDisplay:10.37,2013-04-28 14:22:00,
2013-04-28 09:27:00,56.8,51.4,30.00,SE,137,1.6,3.5,82,0.00,CLR,,0.00,WeatherDisplay:10.37,2013-04-28 14:27:00,
2013-04-28 09:32:00,57.0,51.2,30.00,SE,129,2.3,3.5,81,0.00,CLR,,0.00,WeatherDisplay:10.37,2013-04-28 14:32:00,
2013-04-28 09:37:00,57.3,51.5,30.00,WNW,296,1.7,3.5,81,0.00,CLR,,0.00,WeatherDisplay:10.37,2013-04-28 14:37:00,
2013-04-28 09:42:00,57.7,51.9,29.99,East,90,1.2,3.5,81,0.00,CLR,,0.00,WeatherDisplay:10.37,2013-04-28 14:42:00,
2013-04-28 09:47:00,58.0,52.2,30.00,SSE,162,2.7,4.6,81,0.00,CLR,,0.00,WeatherDisplay:10.37,2013-04-28 14:47:00,
2013-04-28 09:52:00,58.4,52.6,29.99,ESE,111,0.8,3.5,81,0.00,CLR,,0.00,WeatherDisplay:10.37,2013-04-28 14:52:00,
2013-04-28 09:57:00,58.7,52.5,29.99,SW,226,1.7,3.5,80,0.00,CLR,,0.00,WeatherDisplay:10.37,2013-04-28 14:57:00,
2013-04-28 10:02:00,59.4,53.6,29.99,SSW,201,1.0,2.3,81,0.00,CLR,,0.00,WeatherDisplay:10.37,2013-04-28 15:02:00,
2013-04-28 10:07:00,59.8,53.6,29.99,SW,233,2.0,3.5,80,0.00,CLR,,0.00,WeatherDisplay:10.37,2013-04-28 15:07:00,
2013-04-28 10:12:00,59.9,53.0,29.99,SSW,204,1.4,3.5,78,0.00,CLR,,0.00,WeatherDisplay:10.37,2013-04-28 15:12:00,
2013-04-28 10:17:00,60.4,53.5,29.99,WSW,238,1.1,3.5,78,0.00,CLR,,0.00,WeatherDisplay:10.37,2013-04-28 15:17:00,
2013-04-28 10:22:00,61.1,54.2,29.99,East,82,1.7,3.5,78,0.00,CLR,,0.00,WeatherDisplay:10.37,2013-04-28 15:22:00,
2013-04-28 10:27:00,61.7,54.4,29.98,SSW,199,2.2,3.5,77,0.00,CLR,,0.00,WeatherDisplay:10.37,2013-04-28 15:27:00,
2013-04-28 10:32:00,61.8,53.8,29.98,WSW,241,2.8,5.8,75,0.00,CLR,,0.00,WeatherDisplay:10.37,2013-04-28 15:32:00,
2013-04-28 10:37:00,62.0,54.3,29.98,SW,215,1.2,3.5,76,0.00,CLR,,0.00,WeatherDisplay:10.37,2013-04-28 15:37:00,
2013-04-28 10:42:00,62.6,54.6,29.98,South,184,0.4,3.5,75,0.00,CLR,,0.00,WeatherDisplay:10.37,2013-04-28 15:42:00,
2013-04-28 10:47:00,63.4,54.6,29.98,WSW,238,2.1,6.0,73,0.00,CLR,,0.00,WeatherDisplay:10.37,2013-04-28 15:47:00,
2013-04-28 10:52:00,63.4,55.3,29.98,SE,130,1.2,2.3,75,0.00,CLR,,0.00,WeatherDisplay:10.37,2013-04-28 15:52:00,
2013-04-28 10:57:00,63.7,54.9,29.98,SSE,160,1.6,3.5,73,0.00,CLR,,0.00,WeatherDisplay:10.37,2013-04-28 15:57:00,
2013-04-28 11:02:00,64.1,54.9,29.98,South,188,2.7,3.5,72,0.00,CLR,,0.00,WeatherDisplay:10.37,2013-04-28 16:02:00,
2013-04-28 11:07:00,64.5,55.3,29.98,SW,226,2.8,5.8,72,0.00,CLR,,0.00,WeatherDisplay:10.37,2013-04-28 16:07:00,
2013-04-28 11:12:00,64.8,55.6,29.98,SE,143,3.3,3.5,72,0.00,CLR,,0.00,WeatherDisplay:10.37,2013-04-28 16:12:00,
2013-04-28 11:17:00,65.2,55.6,29.98,SE,145,1.8,4.0,71,0.00,CLR,,0.00,WeatherDisplay:10.37,2013-04-28 16:17:00,
2013-04-28 11:22:00,65.5,56.2,29.98,SSW,213,2.1,5.8,72,0.00,CLR,,0.00,WeatherDisplay:10.37,2013-04-28 16:22:00,
2013-04-28 11:27:00,65.4,55.4,29.97,WSW,247,2.0,3.5,70,0.00,CLR,,0.00,WeatherDisplay:10.37,2013-04-28 16:27:00,
2013-04-28 11:32:00,66.2,56.5,29.98,SE,143,2.1,5.0,71,0.00,CLR,,0.00,WeatherDisplay:10.37,2013-04-28 16:32:00,
2013-04-28 11:37:00,66.3,56.2,29.97,SSE,164,2.1,4.0,70,0.00,CLR,,0.00,WeatherDisplay:10.37,2013-04-28 16:37:00,
2013-04-28 11:42:00,66.3,55.8,29.97,SSW,195,3.7,5.8,69,0.00,CLR,,0.00,WeatherDisplay:10.37,2013-04-28 16:42:00,
2013-04-28 11:47:00,66.7,56.6,29.97,West,259,1.8,4.0,70,0.00,CLR,,0.00,WeatherDisplay:10.37,2013-04-28 16:47:00,
2013-04-28 11:52:00,66.9,56.4,29.97,SSW,197,3.0,4.6,69,0.00,CLR,,0.00,WeatherDisplay:10.37,2013-04-28 16:52:00,
2013-04-28 11:57:00,66.9,56.0,29.97,WSW,248,1.9,3.5,68,0.00,CLR,,0.00,WeatherDisplay:10.37,2013-04-28 16:57:00,
2013-04-28 12:02:00,67.1,56.2,29.97,WSW,238,1.8,3.5,68,0.00,CLR,,0.00,WeatherDisplay:10.37,2013-04-28 17:02:00,
2013-04-28 12:07:00,67.5,56.2,29.97,WSW,249,2.4,5.8,67,0.00,CLR,,0.00,WeatherDisplay:10.37,2013-04-28 17:07:00,
2013-04-28 12:12:00,67.9,56.1,29.96,SW,229,2.2,4.6,66,0.00,CLR,,0.00,WeatherDisplay:10.37,2013-04-28 17:12:00,
2013-04-28 12:17:00,67.9,56.1,29.96,SE,134,2.5,4.6,66,0.00,CLR,,0.00,WeatherDisplay:10.37,2013-04-28 17:17:00,
2013-04-28 12:22:00,68.2,56.8,29.96,ESE,115,2.7,5.0,67,0.00,CLR,,0.00,WeatherDisplay:10.37,2013-04-28 17:22:00,
2013-04-28 12:27:00,68.2,56.8,29.95,SSE,162,2.2,4.6,67,0.00,CLR,,0.00,WeatherDisplay:10.37,2013-04-28 17:27:00,
2013-04-28 12:32:00,68.9,56.6,29.95,ESE,118,2.3,3.5,65,0.00,CLR,,0.00,WeatherDisplay:10.37,2013-04-28 17:32:00,
2013-04-28 12:37:00,69.1,57.3,29.95,SSE,162,3.2,6.9,66,0.00,CLR,,0.00,WeatherDisplay:10.37,2013-04-28 17:37:00,
2013-04-28 12:42:00,69.2,56.9,29.94,SSE,164,4.7,8.1,65,0.00,CLR,,0.00,WeatherDisplay:10.37,2013-04-28 17:42:00,
2013-04-28 12:47:00,69.6,56.9,29.94,SSW,200,2.5,3.5,64,0.00,CLR,,0.00,WeatherDisplay:10.37,2013-04-28 17:47:00,
2013-04-28 12:52:00,70.1,56.9,29.94,ESE,122,2.3,5.8,63,0.00,CLR,,0.00,WeatherDisplay:10.37,2013-04-28 17:52:00,
2013-04-28 12:57:00,70.1,57.4,29.94,SE,140,2.2,3.5,64,0.00,CLR,,0.00,WeatherDisplay:10.37,2013-04-28 17:57:00,
2013-04-28 13:02:00,70.5,57.3,29.94,East,92,3.4,8.1,63,0.00,CLR,,0.00,WeatherDisplay:10.37,2013-04-28 18:02:00,
2013-04-28 13:07:00,70.3,56.7,29.93,East,97,3.7,5.8,62,0.00,CLR,,0.00,WeatherDisplay:10.37,2013-04-28 18:07:00,
2013-04-28 13:12:00,70.6,56.0,29.93,SE,127,4.4,6.9,60,0.00,CLR,,0.00,WeatherDisplay:10.37,2013-04-28 18:12:00,
2013-04-28 13:17:00,70.9,56.3,29.92,SE,129,3.0,5.8,60,0.00,CLR,,0.00,WeatherDisplay:10.37,2013-04-28 18:17:00,
2013-04-28 13:23:00,71.0,56.4,29.92,SE,145,3.1,4.6,60,0.00,CLR,,0.00,WeatherDisplay:10.37,2013-04-28 18:23:00,
2013-04-28 13:28:00,71.1,56.5,29.92,South,178,4.1,9.2,60,0.00,CLR,,0.00,WeatherDisplay:10.37,2013-04-28 18:28:00,
2013-04-28 13:33:00,71.2,56.1,29.92,SE,133,3.2,5.8,59,0.00,CLR,,0.00,WeatherDisplay:10.37,2013-04-28 18:33:00,
2013-04-28 13:38:00,71.7,56.6,29.92,West,265,2.8,6.0,59,0.00,CLR,,0.00,WeatherDisplay:10.37,2013-04-28 18:38:00,
2013-04-28 13:43:00,72.2,56.6,29.92,South,171,3.1,4.6,58,0.00,CLR,,0.00,WeatherDisplay:10.37,2013-04-28 18:43:00,
2013-04-28 13:48:00,72.1,56.5,29.91,ESE,111,4.3,8.1,58,0.00,CLR,,0.00,WeatherDisplay:10.37,2013-04-28 18:48:00,
2013-04-28 13:53:00,72.2,57.1,29.91,SSW,207,2.1,3.5,59,0.00,CLR,,0.00,WeatherDisplay:10.37,2013-04-28 18:53:00,
2013-04-28 13:58:00,72.8,57.2,29.91,South,187,2.4,3.5,58,0.00,CLR,,0.00,WeatherDisplay:10.37,2013-04-28 18:58:00,
2013-04-28 14:03:00,72.9,55.8,29.90,SSE,154,3.6,6.9,55,0.00,CLR,,0.00,WeatherDisplay:10.37,2013-04-28 19:03:00,
2013-04-28 14:08:00,73.2,56.6,29.90,WSW,251,3.1,3.5,56,0.00,CLR,,0.00,WeatherDisplay:10.37,2013-04-28 19:08:00,
2013-04-28 14:13:00,73.2,56.1,29.90,SE,134,1.5,4.0,55,0.00,CLR,,0.00,WeatherDisplay:10.37,2013-04-28 19:13:00,
2013-04-28 14:18:00,73.6,55.9,29.89,East,99,2.1,4.6,54,0.00,CLR,,0.00,WeatherDisplay:10.37,2013-04-28 19:18:00,
2013-04-28 14:23:00,74.0,56.3,29.89,SSW,203,2.8,5.0,54,0.00,CLR,,0.00,WeatherDisplay:10.37,2013-04-28 19:23:00,
2013-04-28 14:28:00,73.8,55.1,29.89,East,93,4.6,8.1,52,0.00,CLR,,0.00,WeatherDisplay:10.37,2013-04-28 19:28:00,
2013-04-28 14:33:00,73.9,55.2,29.89,SSE,155,3.4,5.8,52,0.00,CLR,,0.00,WeatherDisplay:10.37,2013-04-28 19:33:00,
2013-04-28 14:38:00,74.6,56.3,29.89,SSE,158,1.9,4.6,53,0.00,CLR,,0.00,WeatherDisplay:10.37,2013-04-28 19:38:00,
2013-04-28 14:43:00,74.7,55.9,29.88,SE,125,2.3,10.4,52,0.00,CLR,,0.00,WeatherDisplay:10.37,2013-04-28 19:43:00,
2013-04-28 14:48:00,74.7,54.8,29.88,South,191,2.3,4.6,50,0.00,CLR,,0.00,WeatherDisplay:10.37,2013-04-28 19:48:00,
2013-04-28 14:53:00,75.0,55.1,29.87,SSW,210,3.0,4.0,50,0.00,CLR,,0.00,WeatherDisplay:10.37,2013-04-28 19:53:00,
2013-04-28 14:58:00,75.2,54.2,29.87,SW,214,3.6,4.6,48,0.00,CLR,,0.00,WeatherDisplay:10.37,2013-04-28 19:58:00,
2013-04-28 15:03:00,75.6,55.6,29.87,ESE,117,2.8,5.8,50,0.00,CLR,,0.00,WeatherDisplay:10.37,2013-04-28 20:03:00,
2013-04-28 15:08:00,75.6,53.4,29.86,SE,135,3.4,8.1,46,0.00,CLR,,0.00,WeatherDisplay:10.37,2013-04-28 20:08:00,
2013-04-28 15:13:00,75.9,54.2,29.86,ENE,74,2.2,3.5,47,0.00,CLR,,0.00,WeatherDisplay:10.37,2013-04-28 20:13:00,
2013-04-28 15:18:00,76.1,55.0,29.86,SE,145,2.8,4.6,48,0.00,CLR,,0.00,WeatherDisplay:10.37,2013-04-28 20:18:00,
2013-04-28 15:23:00,76.1,53.8,29.86,SSW,205,4.3,6.9,46,0.00,CLR,,0.00,WeatherDisplay:10.37,2013-04-28 20:23:00,
2013-04-28 15:28:00,76.5,53.6,29.85,SSW,206,3.6,5.8,45,0.00,CLR,,0.00,WeatherDisplay:10.37,2013-04-28 20:28:00,
2013-04-28 15:33:00,77.0,54.6,29.85,SSW,206,4.4,5.8,46,0.00,CLR,,0.00,WeatherDisplay:10.37,2013-04-28 20:33:00,
2013-04-28 15:38:00,77.1,54.7,29.85,West,270,2.1,4.0,46,0.00,CLR,,0.00,WeatherDisplay:10.37,2013-04-28 20:38:00,
2013-04-28 15:43:00,77.0,54.6,29.85,ESE,123,4.4,8.1,46,0.00,CLR,,0.00,WeatherDisplay:10.37,2013-04-28 20:43:00,
2013-04-28 15:48:00,76.7,54.4,29.84,South,181,2.8,4.6,46,0.00,CLR,,0.00,WeatherDisplay:10.37,2013-04-28 20:48:00,
2013-04-28 15:53:00,76.8,55.6,29.84,WSW,243,3.0,4.6,48,0.00,CLR,,0.00,WeatherDisplay:10.37,2013-04-28 20:53:00,
2013-04-28 15:58:00,77.0,54.6,29.84,SSW,193,2.4,4.6,46,0.00,CLR,,0.00,WeatherDisplay:10.37,2013-04-28 20:58:00,
2013-04-28 16:03:00,77.4,55.6,29.84,SE,131,4.0,6.9,47,0.00,CLR,,0.00,WeatherDisplay:10.37,2013-04-28 21:03:00,
2013-04-28 16:08:00,77.5,54.5,29.83,SSE,158,2.6,5.0,45,0.00,CLR,,0.00,WeatherDisplay:10.37,2013-04-28 21:08:00,
2013-04-28 16:13:00,77.3,54.9,29.83,SE,146,3.9,5.8,46,0.00,CLR,,0.00,WeatherDisplay:10.37,2013-04-28 21:13:00,
2013-04-28 16:18:00,77.1,55.3,29.83,SSW,203,2.8,5.0,47,0.00,CLR,,0.00,WeatherDisplay:10.37,2013-04-28 21:18:00,
2013-04-28 16:23:00,77.4,56.2,29.83,SE,128,2.0,4.0,48,0.00,CLR,,0.00,WeatherDisplay:10.37,2013-04-28 21:23:00,
2013-04-28 16:28:00,77.5,56.3,29.82,SW,216,2.8,7.0,48,0.00,CLR,,0.00,WeatherDisplay:10.37,2013-04-28 21:28:00,
2013-04-28 16:33:00,77.7,55.3,29.82,SSE,148,2.9,4.6,46,0.00,CLR,,0.00,WeatherDisplay:10.37,2013-04-28 21:33:00,
2013-04-28 16:38:00,77.7,55.3,29.82,SSW,205,2.5,5.8,46,0.00,CLR,,0.00,WeatherDisplay:10.37,2013-04-28 21:38:00,
2013-04-28 16:43:00,77.9,55.5,29.82,South,188,4.2,7.0,46,0.00,CLR,,0.00,WeatherDisplay:10.37,2013-04-28 21:43:00,
2013-04-28 16:48:00,77.9,55.5,29.81,SSE,149,2.2,8.1,46,0.00,CLR,,0.00,WeatherDisplay:10.37,2013-04-28 21:48:00,
2013-04-28 16:53:00,78.4,55.9,29.81,SSE,162,4.3,6.9,46,0.00,CLR,,0.00,WeatherDisplay:10.37,2013-04-28 21:53:00,
2013-04-28 16:58:00,78.4,56.5,29.81,South,183,2.3,6.9,47,0.00,CLR,,0.00,WeatherDisplay:10.37,2013-04-28 21:58:00,
2013-04-28 17:03:00,78.4,55.9,29.81,SE,143,3.8,5.0,46,0.00,CLR,,0.00,WeatherDisplay:10.37,2013-04-28 22:03:00,
2013-04-28 17:08:00,78.3,55.8,29.81,SSW,212,2.8,9.2,46,0.00,CLR,,0.00,WeatherDisplay:10.37,2013-04-28 22:08:00,
2013-04-28 17:13:00,78.4,55.9,29.80,SW,217,1.6,4.6,46,0.00,CLR,,0.00,WeatherDisplay:10.37,2013-04-28 22:13:00,
2013-04-28 17:18:00,78.8,55.7,29.80,ESE,112,3.2,5.8,45,0.00,CLR,,0.00,WeatherDisplay:10.37,2013-04-28 22:18:00,
2013-04-28 17:23:00,78.8,55.7,29.80,SE,130,2.6,5.0,45,0.00,CLR,,0.00,WeatherDisplay:10.37,2013-04-28 22:23:00,
2013-04-28 17:28:00,78.8,55.7,29.80,SE,144,3.2,6.9,45,0.00,CLR,,0.00,WeatherDisplay:10.37,2013-04-28 22:28:00,
2013-04-28 17:33:00,79.0,55.2,29.80,WSW,244,2.0,4.6,44,0.00,CLR,,0.00,WeatherDisplay:10.37,2013-04-28 22:33:00,
2013-04-28 17:38:00,78.9,55.8,29.80,ESE,118,2.9,6.9,45,0.00,CLR,,0.00,WeatherDisplay:10.37,2013-04-28 22:38:00,
2013-04-28 17:43:00,78.8,55.0,29.80,SSW,201,2.4,9.2,44,0.00,CLR,,0.00,WeatherDisplay:10.37,2013-04-28 22:43:00,
2013-04-28 17:48:00,78.8,55.0,29.79,West,270,4.8,9.2,44,0.00,CLR,,0.00,WeatherDisplay:10.37,2013-04-28 22:48:00,
2013-04-28 17:53:00,78.7,55.0,29.79,ESE,121,3.8,5.8,44,0.00,CLR,,0.00,WeatherDisplay:10.37,2013-04-28 22:53:00,
2013-04-28 17:58:00,78.6,56.1,29.79,WSW,245,3.9,8.1,46,0.00,CLR,,0.00,WeatherDisplay:10.37,2013-04-28 22:58:00,
2013-04-28 18:03:00,78.5,55.4,29.79,SSW,200,2.3,4.6,45,0.00,CLR,,0.00,WeatherDisplay:10.37,2013-04-28 23:03:00,
2013-04-28 18:08:00,78.4,55.3,29.79,SW,225,2.5,4.6,45,0.00,CLR,,0.00,WeatherDisplay:10.37,2013-04-28 23:08:00,
2013-04-28 18:13:00,78.4,56.5,29.79,SW,218,3.5,4.0,47,0.00,CLR,,0.00,WeatherDisplay:10.37,2013-04-28 23:13:00,
2013-04-28 18:18:00,77.9,54.2,29.79,SW,220,4.2,9.2,44,0.00,CLR,,0.00,WeatherDisplay:10.37,2013-04-28 23:18:00,
2013-04-28 18:23:00,77.5,55.1,29.79,South,179,3.2,3.5,46,0.00,CLR,,0.00,WeatherDisplay:10.37,2013-04-28 23:23:00,
2013-04-28 18:28:00,76.9,55.1,29.78,East,84,2.9,6.0,47,0.00,CLR,,0.00,WeatherDisplay:10.37,2013-04-28 23:28:00,
2013-04-28 18:33:00,76.6,54.3,29.78,South,169,3.2,8.1,46,0.00,CLR,,0.00,WeatherDisplay:10.37,2013-04-28 23:33:00,
2013-04-28 18:38:00,76.6,54.9,29.78,WSW,258,0.9,3.5,47,0.00,CLR,,0.00,WeatherDisplay:10.37,2013-04-28 23:38:00,
2013-04-28 18:43:00,76.7,54.4,29.78,SSE,154,1.1,3.5,46,0.00,CLR,,0.00,WeatherDisplay:10.37,2013-04-28 23:43:00,
2013-04-28 18:48:00,76.5,54.2,29.78,SSW,203,1.7,3.5,46,0.00,CLR,,0.00,WeatherDisplay:10.37,2013-04-28 23:48:00,
2013-04-28 18:53:00,76.4,55.3,29.78,ESE,110,2.5,3.5,48,0.00,CLR,,0.00,WeatherDisplay:10.37,2013-04-28 23:53:00,
2013-04-28 18:58:00,76.3,55.2,29.77,South,176,2.2,3.5,48,0.00,CLR,,0.00,WeatherDisplay:10.37,2013-04-28 23:58:00,
2013-04-28 19:03:00,76.1,55.0,29.77,SSW,195,3.0,6.9,48,0.00,CLR,,0.00,WeatherDisplay:10.37,2013-04-29 00:03:00,
2013-04-28 19:08:00,75.7,55.2,29.77,SE,141,0.9,2.3,49,0.00,CLR,,0.00,WeatherDisplay:10.37,2013-04-29 00:08:00,
2013-04-28 19:14:00,75.3,55.4,29.77,SSE,161,2.4,3.5,50,0.00,CLR,,0.00,WeatherDisplay:10.37,2013-04-29 00:14:00,
2013-04-28 19:19:00,74.8,55.5,29.77,South,181,1.0,3.5,51,0.00,CLR,,0.00,WeatherDisplay:10.37,2013-04-29 00:19:00,
2013-04-28 19:24:00,74.4,55.6,29.77,SSE,159,0.6,2.0,52,0.00,CLR,,0.00,WeatherDisplay:10.37,2013-04-29 00:24:00,
2013-04-28 19:29:00,74.2,56.0,29.77,South,181,1.8,3.5,53,0.00,CLR,,0.00,WeatherDisplay:10.37,2013-04-29 00:29:00,
2013-04-28 19:34:00,74.1,55.9,29.77,South,176,0.6,2.3,53,0.00,CLR,,0.00,WeatherDisplay:10.37,2013-04-29 00:34:00,
2013-04-28 19:39:00,73.8,56.1,29.78,South,179,1.9,6.9,54,0.00,CLR,,0.00,WeatherDisplay:10.37,2013-04-29 00:39:00,
2013-04-28 19:44:00,73.5,55.8,29.78,SE,124,3.1,4.6,54,0.00,CLR,,0.00,WeatherDisplay:10.37,2013-04-29 00:44:00,
2013-04-28 19:49:00,73.2,56.1,29.77,SE,146,1.5,4.6,55,0.00,CLR,,0.00,WeatherDisplay:10.37,2013-04-29 00:49:00,
2013-04-28 19:54:00,72.8,56.2,29.77,ESE,110,1.4,6.9,56,0.00,CLR,,0.00,WeatherDisplay:10.37,2013-04-29 00:54:00,
2013-04-28 19:59:00,72.5,56.4,29.77,SSE,154,3.5,3.5,57,0.00,CLR,,0.00,WeatherDisplay:10.37,2013-04-29 00:59:00,
2013-04-28 20:04:00,72.1,56.5,29.77,SE,124,1.8,2.3,58,0.00,CLR,,0.00,WeatherDisplay:10.37,2013-04-29 01:04:00,
2013-04-28 20:09:00,71.7,56.6,29.78,SSE,148,1.1,3.5,59,0.00,CLR,,0.00,WeatherDisplay:10.37,2013-04-29 01:09:00,
2013-04-28 20:14:00,71.4,56.8,29.78,SSE,155,2.0,4.6,60,0.00,CLR,,0.00,WeatherDisplay:10.37,2013-04-29 01:14:00,
2013-04-28 20:19:00,71.1,57.0,29.78,SW,218,0.9,3.5,61,0.00,CLR,,0.00,WeatherDisplay:10.37,2013-04-29 01:19:00,
2013-04-28 20:24:00,70.7,57.0,29.78,SE,128,1.2,2.3,62,0.00,CLR,,0.00,WeatherDisplay:10.37,2013-04-29 01:24:00,
2013-04-28 20:29:00,70.3,57.1,29.78,SSE,149,0.9,2.3,63,0.00,CLR,,0.00,WeatherDisplay:10.37,2013-04-29 01:29:00,
2013-04-28 20:34:00,69.9,56.7,29.78,SSE,155,1.1,4.6,63,0.00,CLR,,0.00,WeatherDisplay:10.37,2013-04-29 01:34:00,
2013-04-28 20:39:00,69.7,57.0,29.78,South,184,2.1,2.3,64,0.00,CLR,,0.00,WeatherDisplay:10.37,2013-04-29 01:39:00,
2013-04-28 20:44:00,69.5,56.8,29.78,SSE,156,2.6,3.5,64,0.00,CLR,,0.00,WeatherDisplay:10.37,2013-04-29 01:44:00,
2013-04-28 20:49:00,69.3,57.0,29.77,SE,124,2.1,3.5,65,0.00,CLR,,0.00,WeatherDisplay:10.37,2013-04-29 01:49:00,
2013-04-28 20:54:00,69.0,56.7,29.78,ESE,113,1.7,3.5,65,0.00,CLR,,0.00,WeatherDisplay:10.37,2013-04-29 01:54:00,
2013-04-28 20:59:00,68.7,56.9,29.78,South,177,0.3,2.3,66,0.00,CLR,,0.00,WeatherDisplay:10.37,2013-04-29 01:59:00,
2013-04-28 21:04:00,68.5,56.7,29.78,South,169,1.7,2.0,66,0.00,CLR,,0.00,WeatherDisplay:10.37,2013-04-29 02:04:00,
2013-04-28 21:09:00,68.4,57.0,29.78,SSE,158,0.5,3.5,67,0.00,CLR,,0.00,WeatherDisplay:10.37,2013-04-29 02:09:00,
2013-04-28 21:14:00,68.0,56.6,29.78,SSE,153,0.6,2.3,67,0.00,CLR,,0.00,WeatherDisplay:10.37,2013-04-29 02:14:00,
2013-04-28 21:19:00,67.9,56.9,29.78,ESE,110,0.1,2.3,68,0.00,CLR,,0.00,WeatherDisplay:10.37,2013-04-29 02:19:00,
2013-04-28 21:24:00,67.6,56.7,29.79,SE,125,1.0,3.5,68,0.00,CLR,,0.00,WeatherDisplay:10.37,2013-04-29 02:24:00,
2013-04-28 21:29:00,67.5,57.0,29.79,ESE,113,1.5,3.0,69,0.00,CLR,,0.00,WeatherDisplay:10.37,2013-04-29 02:29:00,
2013-04-28 21:34:00,67.3,56.8,29.79,SE,136,0.6,3.5,69,0.00,CLR,,0.00,WeatherDisplay:10.37,2013-04-29 02:34:00,
2013-04-28 21:39:00,67.1,57.0,29.79,SSW,194,0.9,3.5,70,0.00,CLR,,0.00,WeatherDisplay:10.37,2013-04-29 02:39:00,
2013-04-28 21:44:00,66.9,56.8,29.79,SE,124,2.8,5.0,70,0.00,CLR,,0.00,WeatherDisplay:10.37,2013-04-29 02:44:00,
2013-04-28 21:49:00,66.7,57.0,29.79,East,96,1.6,1.6,71,0.00,CLR,,0.00,WeatherDisplay:10.37,2013-04-29 02:49:00,
2013-04-28 21:54:00,66.6,56.9,29.79,South,172,0.4,3.5,71,0.00,CLR,,0.00,WeatherDisplay:10.37,2013-04-29 02:54:00,
2013-04-28 21:59:00,66.4,56.7,29.79,East,82,1.0,4.6,71,0.00,CLR,,0.00,WeatherDisplay:10.37,2013-04-29 02:59:00,
2013-04-28 22:04:00,66.3,56.6,29.79,South,172,0.4,2.3,71,0.00,CLR,,0.00,WeatherDisplay:10.37,2013-04-29 03:04:00,
2013-04-28 22:09:00,66.2,56.9,29.79,SE,131,0.8,3.5,72,0.00,CLR,,0.00,WeatherDisplay:10.37,2013-04-29 03:09:00,
2013-04-28 22:14:00,65.9,56.6,29.79,SSW,209,1.5,2.0,72,0.00,CLR,,0.00,WeatherDisplay:10.37,2013-04-29 03:14:00,
2013-04-28 22:19:00,65.8,56.5,29.79,SW,233,2.1,3.5,72,0.00,CLR,,0.00,WeatherDisplay:10.37,2013-04-29 03:19:00,
2013-04-28 22:24:00,65.6,56.7,29.79,SSE,157,1.6,2.3,73,0.00,CLR,,0.00,WeatherDisplay:10.37,2013-04-29 03:24:00,
2013-04-28 22:29:00,65.5,56.6,29.79,SSE,155,0.9,2.3,73,0.00,CLR,,0.00,WeatherDisplay:10.37,2013-04-29 03:29:00,
2013-04-28 22:34:00,65.4,56.5,29.79,SE,142,1.2,3.5,73,0.00,CLR,,0.00,WeatherDisplay:10.37,2013-04-29 03:34:00,
2013-04-28 22:39:00,65.2,56.3,29.79,SSE,165,0.3,2.0,73,0.00,CLR,,0.00,WeatherDisplay:10.37,2013-04-29 03:39:00,
2013-04-28 22:44:00,65.0,56.5,29.79,ESE,123,1.3,2.3,74,0.00,CLR,,0.00,WeatherDisplay:10.37,2013-04-29 03:44:00,
2013-04-28 22:49:00,64.9,56.4,29.79,SSE,162,0.4,3.5,74,0.00,CLR,,0.00,WeatherDisplay:10.37,2013-04-29 03:49:00,
2013-04-28 22:54:00,64.7,56.2,29.79,SSE,147,1.7,3.5,74,0.00,CLR,,0.00,WeatherDisplay:10.37,2013-04-29 03:54:00,
2013-04-28 22:59:00,64.5,56.4,29.79,SSE,158,0.1,1.2,75,0.00,CLR,,0.00,WeatherDisplay:10.37,2013-04-29 03:59:00,
2013-04-28 23:01:00,64.4,56.3,29.79,SE,131,0.9,2.3,75,0.00,CLR,,0.00,WeatherDisplay:10.37,2013-04-29 04:01:00,
2013-04-28 23:06:00,64.2,56.1,29.79,SSW,201,1.2,3.5,75,0.00,CLR,,0.00,WeatherDisplay:10.37,2013-04-29 04:06:00,
2013-04-28 23:12:00,64.1,56.0,29.79,SE,135,0.6,2.3,75,0.00,CLR,,0.00,WeatherDisplay:10.37,2013-04-29 04:12:00,
2013-04-28 23:17:00,63.9,56.2,29.79,SE,137,0.6,2.3,76,0.00,CLR,,0.00,WeatherDisplay:10.37,2013-04-29 04:17:00,
2013-04-28 23:22:00,63.8,56.1,29.79,SE,127,2.2,4.0,76,0.00,CLR,,0.00,WeatherDisplay:10.37,2013-04-29 04:22:00,
2013-04-28 23:27:00,63.6,55.9,29.79,SW,220,1.4,1.4,76,0.00,CLR,,0.00,WeatherDisplay:10.37,2013-04-29 04:27:00,
2013-04-28 23:32:00,63.4,56.1,29.79,ESE,120,1.0,2.3,77,0.00,CLR,,0.00,WeatherDisplay:10.37,2013-04-29 04:32:00,
2013-04-28 23:37:00,63.3,56.0,29.79,SSE,159,0.6,2.0,77,0.00,CLR,,0.00,WeatherDisplay:10.37,2013-04-29 04:37:00,
2013-04-28 23:42:00,63.2,55.9,29.79,SE,127,0.3,2.0,77,0.00,CLR,,0.00,WeatherDisplay:10.37,2013-04-29 04:42:00,
2013-04-28 23:47:00,63.0,56.0,29.79,SE,131,1.5,3.5,78,0.00,CLR,,0.00,WeatherDisplay:10.37,2013-04-29 04:47:00,
2013-04-28 23:52:00,62.8,55.8,29.79,SSE,147,1.7,2.3,78,0.00,CLR,,0.00,WeatherDisplay:10.37,2013-04-29 04:52:00,
2013-04-28 23:57:00,62.7,55.7,29.79,ESE,113,0.8,3.0,78,0.00,CLR,,0.00,WeatherDisplay:10.37,2013-04-29 04:57:00,